Latest Weather Observations for Yarram Airport

IDV60801

Issued at 9:52 pm EST Monday 18 June 2018 (issued every 10 minutes, with the page automatically refreshed every 10 minutes)

About weather observations | Map of weather stations | Latest weather observations for VIC | Other Formats
Station Details ID: 085151 Name: YARRAM AIRPORT Lat: -38.56 Lon: 146.75 Height: 17.9 m
Data from the previous 72 hours. | See also: Recent months at Yarram Airport
Date/Time
EST
Temp
°C
App
Temp
°C
Dew
Point
°C
Rel
Hum
%
Delta-T
°C
Wind Press
QNH
hPa
Press
MSL
hPa
Rain since
9am
mm
Dir  Spd
km/h
Gust
km/h
Spd
kts
Gust
kts
18/09:30pm 6.9 4.1 5.2 89 0.7 WNW 9 9 5 5 1028.3 1028.3 0.0
18/09:00pm 7.1 3.9 5.1 87 0.9 WNW 11 13 6 7 1028.1 1028.1 0.0
18/08:30pm 7.3 4.1 5.3 87 0.9 W 11 13 6 7 1028.0 1028.0 0.0
18/08:00pm 7.4 4.6 5.2 86 1.0 W 9 11 5 6 1027.9 1027.9 0.0
18/07:30pm 7.6 4.5 5.6 87 0.9 WNW 11 15 6 8 1027.7 1027.7 0.0
18/07:00pm 7.0 3.1 5.2 88 0.8 W 15 17 8 9 1027.4 1027.4 0.0
18/06:30pm 7.1 3.6 5.3 88 0.8 W 13 15 7 8 1027.0 1027.1 0.0
18/06:00pm 5.7 2.2 3.5 86 0.9 W 11 13 6 7 1026.6 1026.7 0.0
18/05:30pm 6.7 3.2 3.7 81 1.3 SW 11 13 6 7 1026.4 1026.5 0.0
18/05:00pm 7.6 4.2 4.0 78 1.5 WSW 11 15 6 8 1026.2 1026.3 0.0
18/04:30pm 9.3 5.2 4.5 72 2.1 SSW 15 19 8 10 1025.9 1026.0 0.0
18/04:00pm 11.3 6.9 5.0 65 2.9 S 17 20 9 11 1025.7 1025.8 0.0
18/03:30pm 12.0 7.1 5.2 63 3.1 S 20 28 11 15 1025.4 1025.5 0.0
18/03:00pm 11.9 6.8 5.8 66 2.8 SSW 22 28 12 15 1025.3 1025.4 0.0
18/02:30pm 12.3 6.8 5.7 64 3.1 S 24 32 13 17 1025.2 1025.3 0.0
18/02:00pm 12.9 6.7 6.0 63 3.2 S 28 35 15 19 1025.0 1025.1 0.0
18/01:30pm 11.9 7.6 8.0 77 1.9 SSW 20 26 11 14 1024.7 1024.8 0.0
18/01:00pm 12.2 6.0 7.9 75 2.1 SSW 30 39 16 21 1025.0 1025.1 0.0
18/12:30pm 13.1 7.7 7.8 70 2.6 SSW 26 35 14 19 1025.0 1025.1 0.0
18/12:00pm 12.7 7.6 7.6 71 2.5 SSW 24 32 13 17 1025.2 1025.3 0.0
18/11:30am 12.3 8.1 7.6 73 2.3 SW 19 26 10 14 1025.2 1025.3 0.0
18/11:00am 12.3 9.2 8.8 79 1.7 WSW 15 19 8 10 1025.4 1025.5 0.0
18/10:30am 12.1 9.0 8.9 81 1.6 WSW 15 19 8 10 1025.2 1025.3 0.0
18/10:00am 11.3 8.5 8.7 84 1.3 WSW 13 17 7 9 1025.1 1025.2 0.0
18/09:30am 10.6 7.4 8.4 86 1.1 W 15 17 8 9 1024.8 1024.9 0.0
18/09:00am 10.0 7.1 8.1 88 0.9 W 13 19 7 10 1024.6 1024.7 2.6
18/08:30am 9.3 6.7 7.7 90 0.8 WSW 11 15 6 8 1024.2 1024.3 2.6
18/08:00am 8.8 5.7 7.3 90 0.7 W 13 15 7 8 1023.7 1023.8 2.6
18/07:30am 8.8 5.7 7.3 90 0.7 W 13 15 7 8 1023.5 1023.6 2.6
18/07:00am 8.6 5.9 7.2 91 0.7 W 11 13 6 7 1023.3 1023.4 2.6
18/06:30am 8.7 5.6 7.2 90 0.7 W 13 15 7 8 1022.8 1022.9 2.6
18/06:00am 8.5 5.0 7.1 91 0.7 W 15 17 8 9 1022.5 1022.6 2.6
18/05:30am 8.3 5.9 6.8 90 0.7 WSW 9 13 5 7 1022.2 1022.3 2.6
18/05:00am 8.3 5.2 7.1 92 0.6 WSW 13 17 7 9 1021.9 1022.0 2.6
18/04:30am 6.9 3.4 5.5 91 0.6 WSW 13 15 7 8 1021.7 1021.8 2.6
18/04:00am 6.8 3.6 5.3 90 0.7 WNW 11 13 6 7 1021.5 1021.6 2.6
18/03:30am 8.2 5.3 6.3 88 0.9 WSW 11 17 6 9 1021.3 1021.4 2.6
18/03:00am 8.9 4.9 6.7 86 1.0 WSW 17 20 9 11 1021.1 1021.2 2.6
18/02:30am 9.0 4.8 5.6 79 1.5 SSW 17 20 9 11 1021.0 1021.1 2.6
18/02:00am 10.0 5.5 6.2 77 1.8 S 19 24 10 13 1020.6 1020.7 2.6
18/01:30am 10.2 5.6 6.5 78 1.7 S 20 24 11 13 1020.3 1020.4 2.6
18/01:00am 9.9 5.0 6.8 81 1.5 S 22 30 12 16 1020.2 1020.3 2.6
18/12:30am 9.3 6.4 8.1 92 0.6 WSW 13 17 7 9 1020.1 1020.2 2.6
18/12:00am 9.7 7.0 8.8 94 0.4 WSW 13 20 7 11 1019.8 1019.9 2.6
 
Date/Time
EST
Temp
°C
App
Temp
°C
Dew
Point
°C
Rel
Hum
%
Delta-T
°C
Wind Press
QNH
hPa
Press
MSL
hPa
Rain since
9am
mm
Dir  Spd
km/h
Gust
km/h
Spd
kts
Gust
kts
17/11:30pm 8.9 5.9 7.8 93 0.5 W 13 17 7 9 1019.5 1019.6 1.4
17/11:00pm 9.2 5.9 8.0 92 0.6 SW 15 17 8 9 1019.3 1019.4 1.4
17/10:30pm 9.2 5.8 7.8 91 0.7 WSW 15 19 8 10 1018.9 1019.0 1.4
17/10:00pm 10.2 7.0 8.5 89 0.8 WSW 15 20 8 11 1018.5 1018.6 1.2
17/09:30pm 9.8 7.0 8.4 91 0.7 WSW 13 17 7 9 1018.3 1018.4 1.2
17/09:00pm 9.2 6.2 7.6 90 0.8 WSW 13 15 7 8 1018.1 1018.2 1.2
17/08:30pm 9.6 6.3 7.9 89 0.8 WSW 15 19 8 10 1017.8 1017.9 1.2
17/08:00pm 9.7 5.3 7.6 87 1.0 WSW 20 24 11 13 1017.5 1017.6 1.2
17/07:30pm 9.3 5.6 6.2 81 1.4 W 15 19 8 10 1017.1 1017.2 1.2
17/07:00pm 10.1 6.1 6.8 80 1.5 WSW 17 22 9 12 1016.8 1016.9 1.2
17/06:30pm 10.1 6.7 7.5 84 1.2 WSW 15 19 8 10 1016.3 1016.4 1.2
17/06:00pm 11.0 6.8 7.3 78 1.8 SW 19 26 10 14 1015.8 1015.9 1.2
17/05:30pm 11.7 4.9 6.8 72 2.3 SSW 32 41 17 22 1015.0 1015.1 1.2
17/05:00pm 11.9 6.1 7.8 76 2.0 SSW 28 37 15 20 1014.5 1014.6 1.2
17/04:30pm 12.2 5.2 8.3 77 1.9 SSW 35 46 19 25 1014.0 1014.1 1.2
17/04:00pm 12.6 6.1 8.1 74 2.2 SSW 32 43 17 23 1013.4 1013.5 1.0
17/03:30pm 13.0 5.9 8.1 72 2.4 SSW 35 50 19 27 1012.8 1012.9 1.0
17/03:00pm 12.8 6.4 8.5 75 2.1 SSW 32 41 17 22 1012.1 1012.2 1.0
17/02:30pm 13.3 7.1 9.4 77 2.0 SSW 32 39 17 21 1011.6 1011.7 1.0
17/02:00pm 12.8 5.9 8.9 77 2.0 SSW 35 48 19 26 1011.3 1011.4 1.0
17/01:30pm 13.1 5.9 9.0 76 2.1 SSW 37 46 20 25 1011.1 1011.2 1.0
17/01:00pm 12.7 5.0 8.6 76 2.0 SSW 39 54 21 29 1010.6 1010.6 1.0
17/12:30pm 12.4 5.7 9.8 84 1.3 SSW 35 46 19 25 1010.3 1010.3 1.0
17/12:00pm 13.3 7.4 9.0 75 2.2 SSW 30 39 16 21 1010.2 1010.2 0.4
17/11:30am 12.3 8.7 9.9 85 1.2 WSW 19 26 10 14 1010.1 1010.1 0.4
17/11:00am 11.0 7.2 8.9 87 1.0 WSW 19 28 10 15 1010.2 1010.2 0.4
17/10:30am 10.3 5.4 8.6 89 0.8 SW 24 32 13 17 1009.6 1009.6 0.4
17/10:00am 9.7 4.8 8.3 91 0.7 SW 24 32 13 17 1009.3 1009.3 0.4
17/09:30am 10.2 6.1 8.6 90 0.8 WSW 20 28 11 15 1008.7 1008.7 0.0
17/09:00am 9.4 4.7 7.8 90 0.8 SW 22 32 12 17 1008.2 1008.2 7.2
17/08:30am 9.3 6.0 8.1 92 0.6 SW 15 24 8 13 1007.7 1007.7 5.4
17/08:00am 9.0 4.9 7.8 92 0.6 W 19 22 10 12 1006.8 1006.8 5.2
17/07:30am 9.1 4.8 7.9 92 0.6 W 20 26 11 14 1006.2 1006.2 5.2
17/07:00am 8.8 4.6 7.4 91 0.7 W 19 24 10 13 1005.8 1005.8 5.2
17/06:30am 8.9 4.5 7.5 91 0.7 WNW 20 26 11 14 1005.4 1005.4 5.2
17/06:00am 8.9 3.4 7.4 90 0.7 WNW 26 33 14 18 1005.1 1005.1 5.2
17/05:30am 8.5 3.2 6.8 89 0.8 NW 24 37 13 20 1004.9 1004.9 4.4
17/05:00am 9.0 2.9 6.8 86 1.0 WNW 28 41 15 22 1004.8 1004.8 4.4
17/04:30am 8.4 1.8 6.2 86 1.0 NW 30 41 16 22 1004.8 1004.8 4.2
17/04:00am 8.0 1.8 6.1 88 0.9 NW 28 37 15 20 1005.0 1005.0 4.2
17/03:30am 8.2 1.6 6.0 86 1.0 WNW 30 41 16 22 1005.6 1005.6 4.0
17/03:00am 8.3 2.0 5.6 83 1.2 WNW 28 37 15 20 1005.9 1005.9 3.8
17/02:30am 8.4 1.2 5.2 80 1.4 WNW 32 46 17 25 1006.2 1006.2 3.6
17/02:00am 8.1 1.7 5.0 81 1.4 WNW 28 41 15 22 1006.2 1006.2 3.6
17/01:30am 8.0 0.8 4.9 81 1.4 WNW 32 44 17 24 1006.5 1006.5 3.6
17/01:00am 7.3 0.9 5.1 86 1.0 WNW 28 39 15 21 1006.9 1006.9 3.6
17/12:30am 7.8 0.7 5.6 86 1.0 WNW 32 43 17 23 1007.0 1007.0 2.8
17/12:00am 8.5 0.8 5.3 80 1.4 WNW 35 50 19 27 1007.1 1007.1 1.8
 
Date/Time
EST
Temp
°C
App
Temp
°C
Dew
Point
°C
Rel
Hum
%
Delta-T
°C
Wind Press
QNH
hPa
Press
MSL
hPa
Rain since
9am
mm
Dir  Spd
km/h
Gust
km/h
Spd
kts
Gust
kts
16/11:43pm 8.7 1.3 4.9 77 1.7 WNW 33 52 18 28 1006.8 1006.8 1.8
16/11:30pm 8.5 1.7 5.1 79 1.5 WNW 30 46 16 25 1006.8 1006.8 1.8
16/11:00pm 8.6 1.8 5.2 79 1.5 WNW 30 48 16 26 1007.4 1007.4 1.8
16/10:51pm 8.5 2.0 4.9 78 1.6 WNW 28 46 15 25 1007.3 1007.3 1.8
16/10:30pm 8.3 1.8 4.7 78 1.6 WNW 28 39 15 21 1007.4 1007.4 1.8
16/10:00pm 8.5 1.6 4.7 77 1.7 WNW 30 39 16 21 1007.4 1007.4 1.8
16/09:30pm 8.4 1.2 4.8 78 1.6 WNW 32 44 17 24 1007.8 1007.8 1.8
16/09:08pm 8.3 1.0 4.7 78 1.6 WNW 32 50 17 27 1008.1 1008.1 1.8
16/09:00pm 8.6 0.8 4.8 77 1.7 WNW 35 48 19 26 1008.1 1008.1 1.8
16/08:30pm 8.5 2.0 4.9 78 1.6 WNW 28 39 15 21 1008.1 1008.1 1.8
16/08:00pm 8.5 1.3 5.1 79 1.5 WNW 32 44 17 24 1008.1 1008.1 1.8
16/07:30pm 8.3 1.5 4.9 79 1.5 WNW 30 46 16 25 1008.1 1008.1 1.8
16/07:13pm 8.3 0.9 5.1 80 1.4 WNW 33 56 18 30 1008.3 1008.3 1.8
16/07:00pm 8.2 1.0 5.1 81 1.4 WNW 32 43 17 23 1008.3 1008.3 1.8
16/06:30pm 7.7 1.8 5.7 87 0.9 WNW 26 33 14 18 1008.5 1008.5 1.8
16/06:00pm 8.0 1.8 6.3 89 0.8 WNW 28 35 15 19 1008.6 1008.6 1.8
16/05:30pm 8.2 1.2 6.2 87 0.9 WNW 32 46 17 25 1008.6 1008.6 1.0
16/05:00pm 8.5 1.3 6.1 85 1.1 WNW 33 44 18 24 1008.4 1008.4 0.6
16/04:30pm 8.9 2.3 6.2 83 1.2 WNW 30 44 16 24 1008.3 1008.3 0.2
16/04:00pm 9.6 2.4 5.2 74 2.0 WNW 32 41 17 22 1008.3 1008.3 0.0
16/03:30pm 10.4 3.2 5.2 70 2.4 WNW 32 43 17 23 1008.1 1008.1 0.0
16/03:17pm 11.0 4.2 5.1 67 2.7 WNW 30 48 16 26 1007.8 1007.8 0.0
16/03:00pm 10.7 3.3 5.0 68 2.6 WNW 33 44 18 24 1007.8 1007.8 0.0
16/02:30pm 12.1 3.9 5.0 62 3.3 WNW 37 57 20 31 1007.7 1007.7 0.0
16/02:00pm 11.3 1.6 3.8 60 3.3 WNW 44 63 24 34 1007.7 1007.7 0.0
16/01:30pm 11.1 1.5 3.4 59 3.4 WNW 43 61 23 33 1007.7 1007.7 0.0
16/01:00pm 11.2 1.6 3.3 58 3.5 WNW 43 63 23 34 1008.2 1008.2 0.0
16/12:34pm 11.7 2.2 3.7 58 3.6 WNW 43 61 23 33 1008.3 1008.3 0.0
16/12:30pm 11.3 1.7 3.6 59 3.4 WNW 43 59 23 32 1008.4 1008.4 0.0
16/12:18pm 11.6 2.5 3.9 59 3.4 WNW 41 61 22 33 1008.3 1008.3 0.0
16/12:00pm 11.1 2.3 3.6 60 3.3 WNW 39 56 21 30 1008.6 1008.6 0.0
16/11:38am 11.3 2.1 3.6 59 3.4 WNW 41 59 22 32 1008.5 1008.5 0.0
16/11:30am 11.4 1.8 3.4 58 3.5 WNW 43 57 23 31 1008.5 1008.5 0.0
16/11:07am 10.9 2.1 3.5 60 3.3 WNW 39 57 21 31 1009.0 1009.0 0.0
16/11:00am 10.8 2.0 3.6 61 3.2 WNW 39 52 21 28 1009.2 1009.2 0.0
16/10:30am 10.7 1.2 3.7 62 3.1 WNW 43 57 23 31 1009.4 1009.4 0.0
16/10:23am 10.6 1.7 3.2 60 3.2 WNW 39 57 21 31 1009.3 1009.3 0.0
16/10:00am 10.9 2.5 3.9 62 3.1 WNW 37 50 20 27 1009.3 1009.3 0.0
16/09:31am 10.1 1.2 3.2 62 3.0 WNW 39 57 21 31 1009.1 1009.1 0.0
16/09:30am 10.1 1.6 3.2 62 3.0 WNW 37 50 20 27 1009.1 1009.1 0.0
16/09:02am 9.8 1.3 3.1 63 2.9 WNW 37 56 20 30 1009.0 1009.0 0.0
16/09:00am 9.6 1.5 3.1 64 2.8 WNW 35 50 19 27 1009.0 1009.0 2.4
16/08:32am 9.3 1.1 2.9 64 2.7 WNW 35 54 19 29 1008.6 1008.6 2.4
16/08:30am 9.2 1.1 3.2 66 2.6 WNW 35 48 19 26 1008.6 1008.6 2.4
16/08:00am 8.7 0.2 2.9 67 2.5 WNW 37 59 20 32 1008.7 1008.7 2.4
16/07:30am 8.7 0.5 2.9 67 2.5 WNW 35 54 19 29 1008.5 1008.5 2.4
16/07:00am 8.7 0.2 2.9 67 2.5 WNW 37 56 20 30 1008.2 1008.2 2.4
16/06:30am 8.9 0.0 3.1 67 2.5 WNW 39 59 21 32 1007.7 1007.7 2.4
16/06:00am 9.1 -0.7 3.3 67 2.5 WNW 44 65 24 35 1007.2 1007.2 2.4
16/05:30am 8.9 -0.8 2.9 66 2.6 WNW 43 65 23 35 1007.2 1007.2 2.4
16/05:08am 8.9 -0.8 2.9 66 2.6 WNW 43 61 23 33 1007.0 1007.0 2.4
16/05:00am 9.2 -0.5 3.0 65 2.7 WNW 43 57 23 31 1007.1 1007.1 2.4
16/04:40am 9.1 0.6 3.1 66 2.6 WNW 37 57 20 31 1007.2 1007.2 2.4
16/04:30am 8.9 0.4 3.1 67 2.5 WNW 37 54 20 29 1007.4 1007.4 2.4
16/04:16am 8.6 0.5 3.2 69 2.3 WNW 35 54 19 29 1007.3 1007.3 2.4
16/04:00am 8.6 0.5 3.4 70 2.2 WNW 35 52 19 28 1007.5 1007.5 2.4
16/03:30am 8.3 0.6 3.4 71 2.1 WNW 33 48 18 26 1007.7 1007.7 2.4
16/03:00am 8.2 -0.2 3.7 73 1.9 WNW 37 56 20 30 1007.7 1007.7 2.4
16/02:30am 8.0 -1.1 4.2 77 1.7 WNW 41 65 22 35 1007.9 1007.9 2.4
16/02:21am 8.3 -1.2 3.8 73 1.9 WNW 43 65 23 35 1008.3 1008.3 2.4
16/02:00am 8.4 -0.8 3.7 72 2.0 WNW 41 54 22 29 1007.9 1007.9 2.4
16/01:34am 8.0 -0.3 4.2 77 1.7 WNW 37 56 20 30 1008.0 1008.0 2.4
16/01:30am 8.2 -0.9 4.2 76 1.7 WNW 41 56 22 30 1007.9 1007.9 2.2
16/01:00am 8.6 -2.0 3.0 68 2.4 WNW 48 67 26 36 1007.9 1007.9 1.8
16/12:48am 8.8 -0.5 3.0 67 2.5 WNW 41 59 22 32 1007.6 1007.6 1.8
16/12:30am 8.6 -0.3 2.8 67 2.5 WNW 39 52 21 28 1007.8 1007.8 1.8
16/12:00am 8.3 0.1 2.8 68 2.3 WNW 35 50 19 27 1008.1 1008.1 1.8
 
Date/Time
EST
Temp
°C
App
Temp
°C
Dew
Point
°C
Rel
Hum
%
Delta-T
°C
Wind Press
QNH
hPa
Press
MSL
hPa
Rain since
9am
mm
Dir  Spd
km/h
Gust
km/h
Spd
kts
Gust
kts
15/11:30pm 8.2 -0.7 2.9 69 2.2 WNW 39 57 21 31 1008.0 1008.0 1.8
15/11:04pm 8.0 -0.2 2.9 70 2.2 WNW 35 54 19 29 1007.8 1007.8 1.8
15/11:00pm 8.2 0.5 3.3 71 2.1 WNW 33 46 18 25 1007.8 1007.8 1.8
15/10:30pm 8.1 1.4 3.6 73 1.9 WNW 28 41 15 22 1007.7 1007.7 1.8
15/10:00pm 8.4 2.6 4.6 77 1.7 WNW 24 35 13 19 1007.9 1007.9 1.8

Other Formats:

Comma delimited format used in spreadsheet applications
http://www.bom.gov.au/fwo/IDV60801/IDV60801.95890.axf

JavaScript Object Notation format (JSON) in row-major order
http://www.bom.gov.au/fwo/IDV60801/IDV60801.95890.json